Time;durP1;ratioP1;P1;durP2;ratioP2;P2;SDS_P1;SDS_P2;PMS_P1;PMS_P2;Temp;Humidity;BMP_temperature;BMP_pressure;BME280_temperature;BME280_humidity;BME280_pressure;Samples;Min_cycle;Max_cycle;Signal;HPM_P1;HPM_P2
2022/08/19 00:01:44;;;;;;;;;;;18.80;99.90;;;;;;4980947;28;20042;-72
2022/08/19 00:04:12;;;;;;;4.13;1.67;;;18.80;99.90;;;;;;4977236;28;19961;-72
2022/08/19 00:06:40;;;;;;;4.47;2.17;;;18.80;99.90;;;;;;4978566;28;20040;-70
2022/08/19 00:09:09;;;;;;;3.88;1.73;;;18.70;99.90;;;;;;4974739;28;20038;-72
2022/08/19 00:11:36;;;;;;;5.10;1.90;;;18.70;99.90;;;;;;4975908;28;20057;-74
2022/08/19 00:14:04;;;;;;;5.20;2.28;;;18.60;99.90;;;;;;4977287;28;20065;-72
2022/08/19 00:16:29;;;;;;;4.72;2.08;;;18.60;99.90;;;;;;5007803;28;20034;-72
2022/08/19 00:18:55;;;;;;;4.53;2.13;;;18.60;99.90;;;;;;4977467;28;20446;-73
2022/08/19 00:21:22;;;;;;;6.13;2.70;;;18.60;99.90;;;;;;5007660;28;20613;-72
2022/08/19 00:23:48;;;;;;;4.28;2.35;;;18.60;99.90;;;;;;4976033;28;20125;-72
2022/08/19 00:26:14;;;;;;;3.17;2.10;;;18.50;99.90;;;;;;4984734;28;20133;-72
2022/08/19 00:28:39;;;;;;;4.43;2.30;;;18.50;99.90;;;;;;4973854;28;20026;-73
2022/08/19 00:31:06;;;;;;;3.25;2.33;;;18.50;99.90;;;;;;4978086;28;20030;-71
2022/08/19 00:33:33;;;;;;;2.97;2.10;;;18.50;99.90;;;;;;4981357;28;20521;-73
2022/08/19 00:36:00;;;;;;;3.70;2.10;;;18.50;99.90;;;;;;4976724;28;20143;-72
2022/08/19 00:38:26;;;;;;;4.55;2.92;;;18.40;99.90;;;;;;4974851;28;20057;-72
2022/08/19 00:40:52;;;;;;;4.78;2.90;;;18.40;99.90;;;;;;4979854;28;20173;-71
2022/08/19 00:43:23;;;;;;;7.65;3.40;;;18.40;99.90;;;;;;4973768;28;20488;-71
2022/08/19 00:45:49;;;;;;;6.13;3.28;;;18.40;99.90;;;;;;4977034;28;20038;-72
2022/08/19 00:48:16;;;;;;;5.85;3.97;;;18.40;99.90;;;;;;4983515;28;20161;-72
2022/08/19 00:50:42;;;;;;;9.63;4.43;;;18.30;99.90;;;;;;4979008;28;20035;-71
2022/08/19 00:53:10;;;;;;;10.75;4.45;;;18.30;99.90;;;;;;4977366;28;20037;-73
2022/08/19 00:55:38;;;;;;;8.75;4.80;;;18.30;99.90;;;;;;4978918;28;20038;-71
2022/08/19 00:58:08;;;;;;;8.57;4.95;;;18.30;99.90;;;;;;4977661;28;20499;-72
2022/08/19 01:00:36;;;;;;;13.02;5.57;;;18.30;99.90;;;;;;4973604;28;20473;-72
2022/08/19 01:03:06;;;;;;;9.32;5.03;;;18.30;99.90;;;;;;4976896;28;20045;-72
2022/08/19 01:05:32;;;;;;;11.18;6.05;;;18.20;99.90;;;;;;4975046;28;20496;-72
2022/08/19 01:08:02;;;;;;;12.70;6.57;;;18.20;99.90;;;;;;4977307;28;20044;-72
2022/08/19 01:10:32;;;;;;;12.55;7.15;;;18.20;99.90;;;;;;4977502;28;20062;-72
2022/08/19 01:12:59;;;;;;;10.60;5.85;;;18.20;99.90;;;;;;5005784;28;20502;-71
2022/08/19 01:15:29;;;;;;;11.00;6.60;;;18.20;99.90;;;;;;4976772;28;20039;-72
2022/08/19 01:17:59;;;;;;;13.52;7.43;;;18.10;99.90;;;;;;4975907;28;20041;-71
2022/08/19 01:20:25;;;;;;;13.05;7.30;;;18.10;99.90;;;;;;4975486;28;20042;-72
2022/08/19 01:22:56;;;;;;;10.80;6.57;;;18.10;99.90;;;;;;4975505;28;20048;-73
2022/08/19 01:25:29;;;;;;;12.73;7.78;;;18.10;99.90;;;;;;4980384;28;20038;-69
2022/08/19 01:27:55;;;;;;;14.30;8.02;;;18.10;99.90;;;;;;4976353;28;20137;-72
2022/08/19 01:30:30;;;;;;;12.93;7.13;;;18.10;99.90;;;;;;4978236;28;20781;-72
2022/08/19 01:32:58;;;;;;;13.82;7.57;;;18.10;99.90;;;;;;4986654;28;20669;-72
2022/08/19 01:35:26;;;;;;;17.17;7.80;;;18.00;99.90;;;;;;4984677;28;20093;-70
2022/08/19 01:38:07;;;;;;;14.98;7.78;;;18.00;99.90;;;;;;4981570;28;20547;-72
2022/08/19 01:40:35;;;;;;;15.13;8.45;;;18.00;99.90;;;;;;4981018;28;20031;-72
2022/08/19 01:43:02;;;;;;;14.07;7.95;;;18.00;99.90;;;;;;4975179;28;20030;-72
2022/08/19 01:45:30;;;;;;;13.23;7.97;;;18.00;99.90;;;;;;4975267;28;20125;-72
2022/08/19 01:47:57;;;;;;;13.43;7.32;;;18.00;99.90;;;;;;4984207;28;20097;-74
2022/08/19 01:50:23;;;;;;;16.67;8.88;;;18.00;99.90;;;;;;4994298;28;20399;-70
2022/08/19 01:52:49;;;;;;;16.85;7.75;;;17.90;99.90;;;;;;4991119;28;20031;-72
2022/08/19 01:55:18;;;;;;;14.63;7.60;;;17.90;99.90;;;;;;4994847;28;20068;-74
2022/08/19 01:57:48;;;;;;;12.45;7.15;;;17.90;99.90;;;;;;4979050;28;20034;-73
2022/08/19 02:00:17;;;;;;;13.10;7.15;;;17.90;99.90;;;;;;4975709;28;20046;-72
2022/08/19 02:02:43;;;;;;;12.93;7.13;;;17.90;99.90;;;;;;4976521;28;20491;-73
2022/08/19 02:05:09;;;;;;;11.32;6.47;;;17.90;99.90;;;;;;4974413;28;20027;-73
2022/08/19 02:07:36;;;;;;;13.27;7.30;;;17.90;99.90;;;;;;4977045;28;20046;-71
2022/08/19 02:10:13;;;;;;;11.85;6.82;;;17.90;99.90;;;;;;4972638;28;20031;-71
2022/08/19 02:12:38;;;;;;;12.35;7.00;;;17.80;99.90;;;;;;4977303;28;20477;-71
2022/08/19 02:15:05;;;;;;;12.18;7.45;;;17.80;99.90;;;;;;4984611;28;20122;-72
2022/08/19 02:17:32;;;;;;;17.83;7.55;;;17.80;99.90;;;;;;4977646;28;20070;-73
2022/08/19 02:19:58;;;;;;;13.13;7.38;;;17.80;99.90;;;;;;4976382;28;20446;-71
2022/08/19 02:22:27;;;;;;;16.10;7.95;;;17.80;99.90;;;;;;4973691;28;20073;-70
2022/08/19 02:24:54;;;;;;;13.23;7.22;;;17.80;99.90;;;;;;4977670;28;20042;-71
2022/08/19 02:27:19;;;;;;;10.18;6.63;;;17.80;99.90;;;;;;4978517;28;20049;-71
2022/08/19 02:29:49;;;;;;;12.02;7.38;;;17.80;99.90;;;;;;4975697;28;20408;-72
2022/08/19 02:32:16;;;;;;;10.88;6.88;;;17.70;99.90;;;;;;4974559;28;20129;-73
2022/08/19 02:34:42;;;;;;;12.32;6.40;;;17.70;99.90;;;;;;4981017;28;20066;-73
2022/08/19 02:38:24;;;;;;;13.38;7.03;;;17.70;99.90;;;;;;4976458;28;20805;-72
2022/08/19 02:39:54;;;;;;;11.60;6.07;;;17.70;99.90;;;;;;4976207;28;20452;-70
2022/08/19 02:42:19;;;;;;;12.13;6.32;;;17.70;99.90;;;;;;4974635;28;20040;-70
2022/08/19 02:44:45;;;;;;;12.43;6.57;;;17.60;99.90;;;;;;4973523;28;20130;-72
2022/08/19 02:47:10;;;;;;;11.43;5.85;;;17.60;99.90;;;;;;4975497;28;20046;-72
2022/08/19 02:49:36;;;;;;;11.90;6.75;;;17.60;99.90;;;;;;4974141;28;20037;-70
2022/08/19 02:52:02;;;;;;;11.82;6.47;;;17.60;99.90;;;;;;4976742;28;20511;-72
2022/08/19 02:54:28;;;;;;;13.18;6.30;;;17.60;99.90;;;;;;4976505;28;20039;-72
2022/08/19 02:56:54;;;;;;;13.40;6.70;;;17.60;99.90;;;;;;4978540;28;20533;-71
2022/08/19 02:59:20;;;;;;;13.43;7.15;;;17.60;99.90;;;;;;4975839;28;20058;-71
2022/08/19 03:01:45;;;;;;;14.07;7.15;;;17.60;99.90;;;;;;4973714;28;20044;-72
2022/08/19 03:04:14;;;;;;;12.95;7.55;;;17.60;99.90;;;;;;4975381;28;20098;-73
2022/08/19 03:06:42;;;;;;;14.45;7.05;;;17.60;99.90;;;;;;4982206;28;20042;-71
2022/08/19 03:09:09;;;;;;;16.48;7.32;;;17.60;99.90;;;;;;4979890;28;20118;-73
2022/08/19 03:11:34;;;;;;;12.23;6.32;;;17.60;99.90;;;;;;4980871;28;20041;-71
2022/08/19 03:14:01;;;;;;;13.32;7.70;;;17.60;99.90;;;;;;4972279;28;20034;-71
2022/08/19 03:16:28;;;;;;;13.73;7.30;;;17.60;99.90;;;;;;4976862;28;20387;-72
2022/08/19 03:18:56;;;;;;;20.35;8.07;;;17.60;99.90;;;;;;4972542;28;20135;-70
2022/08/19 03:21:24;;;;;;;16.85;8.75;;;17.50;99.90;;;;;;4978409;28;20658;-71
2022/08/19 03:23:50;;;;;;;17.20;7.60;;;17.50;99.90;;;;;;4976377;28;20074;-72
2022/08/19 03:26:16;;;;;;;15.00;7.57;;;17.50;99.90;;;;;;4984425;28;20860;-73
2022/08/19 03:28:43;;;;;;;14.93;7.93;;;17.50;99.90;;;;;;4978343;28;20046;-72
2022/08/19 03:31:13;;;;;;;13.02;7.18;;;17.50;99.90;;;;;;4978832;28;20486;-72
2022/08/19 03:33:40;;;;;;;15.57;7.30;;;17.50;99.90;;;;;;4983102;28;20096;-71
2022/08/19 03:36:10;;;;;;;13.32;7.32;;;17.50;99.90;;;;;;4979316;28;20038;-71
2022/08/19 03:38:38;;;;;;;16.10;7.65;;;17.50;99.90;;;;;;4978178;28;20078;-71
2022/08/19 03:41:14;;;;;;;14.77;8.40;;;17.50;99.90;;;;;;4979308;28;20047;-72
2022/08/19 03:43:40;;;;;;;14.50;8.02;;;17.50;99.90;;;;;;4988173;28;20046;-72
2022/08/19 03:46:09;;;;;;;14.82;7.72;;;17.50;99.90;;;;;;4993651;28;20039;-73
2022/08/19 03:48:36;;;;;;;17.00;7.20;;;17.50;99.90;;;;;;4988541;28;20035;-73
2022/08/19 03:51:03;;;;;;;14.55;7.60;;;17.50;99.90;;;;;;4982969;28;20067;-72
2022/08/19 03:53:31;;;;;;;16.98;8.60;;;17.50;99.90;;;;;;4983520;28;20028;-72
2022/08/19 03:55:59;;;;;;;18.10;8.15;;;17.50;99.90;;;;;;4983458;28;20117;-71
2022/08/19 03:58:25;;;;;;;16.42;7.25;;;17.50;99.90;;;;;;4987096;28;20045;-72
2022/08/19 04:00:51;;;;;;;15.95;8.32;;;17.50;99.90;;;;;;4985568;28;20795;-72
2022/08/19 04:03:18;;;;;;;16.42;7.45;;;17.50;99.90;;;;;;4983899;28;20049;-71
2022/08/19 04:05:44;;;;;;;14.45;7.47;;;17.50;99.90;;;;;;4986102;28;20468;-72
2022/08/19 04:08:10;;;;;;;13.80;6.93;;;17.50;99.90;;;;;;4985014;28;20051;-72
2022/08/19 04:10:36;;;;;;;14.25;7.80;;;17.50;99.90;;;;;;4979634;28;20046;-72
2022/08/19 04:13:05;;;;;;;17.20;8.45;;;17.50;99.90;;;;;;4978084;28;20039;-71
2022/08/19 04:15:35;;;;;;;18.48;8.32;;;17.40;99.90;;;;;;4976220;28;20174;-72
2022/08/19 04:18:01;;;;;;;18.90;8.68;;;17.40;99.90;;;;;;5010226;28;20042;-72
2022/08/19 04:20:27;;;;;;;16.27;8.98;;;17.40;99.90;;;;;;4975863;28;20388;-72
2022/08/19 04:22:52;;;;;;;17.60;9.10;;;17.40;99.90;;;;;;4978579;28;20030;-72
2022/08/19 04:25:18;;;;;;;21.05;9.45;;;17.40;99.90;;;;;;4978326;28;20495;-73
2022/08/19 04:27:46;;;;;;;19.00;9.60;;;17.40;99.90;;;;;;5025922;28;20034;-69
2022/08/19 04:30:13;;;;;;;18.75;10.23;;;17.40;99.90;;;;;;4989134;28;20039;-71
2022/08/19 04:32:38;;;;;;;20.13;9.50;;;17.40;99.90;;;;;;4973282;28;20136;-72
2022/08/19 04:35:04;;;;;;;20.60;9.43;;;17.40;99.90;;;;;;4980937;28;20086;-73
2022/08/19 04:37:33;;;;;;;23.77;10.80;;;17.40;99.90;;;;;;4984921;28;20041;-72
2022/08/19 04:42:43;;;;;;;23.48;10.70;;;17.40;99.90;;;;;;4985493;28;20333;-71
2022/08/19 04:45:12;;;;;;;20.70;9.82;;;17.40;99.90;;;;;;4977890;28;20027;-71
2022/08/19 04:47:43;;;;;;;22.88;10.93;;;17.40;99.90;;;;;;4975154;28;20034;-73
2022/08/19 04:50:11;;;;;;;23.13;11.07;;;17.40;99.90;;;;;;4975865;28;20038;-71
2022/08/19 04:52:42;;;;;;;17.88;9.55;;;17.40;99.90;;;;;;4975829;28;20119;-73
2022/08/19 04:55:10;;;;;;;21.33;10.18;;;17.40;99.90;;;;;;4975442;28;20031;-71
2022/08/19 04:57:40;;;;;;;23.02;11.50;;;17.40;99.90;;;;;;4979253;28;20105;-69
2022/08/19 05:00:07;;;;;;;19.83;10.20;;;17.40;99.90;;;;;;4984463;28;20069;-70
2022/08/19 05:02:33;;;;;;;20.70;9.75;;;17.40;99.90;;;;;;4975019;28;20038;-72
2022/08/19 05:05:00;;;;;;;23.67;10.38;;;17.40;99.90;;;;;;4975396;28;20039;-68
2022/08/19 05:07:26;;;;;;;26.35;11.45;;;17.40;99.90;;;;;;4977611;28;20061;-72
2022/08/19 05:09:52;;;;;;;23.70;11.40;;;17.40;99.90;;;;;;4973470;28;20041;-72
2022/08/19 05:12:18;;;;;;;24.98;12.13;;;17.50;99.90;;;;;;4977106;28;20034;-72
2022/08/19 05:14:45;;;;;;;25.42;11.32;;;17.50;99.90;;;;;;4975310;28;20154;-71
2022/08/19 05:17:11;;;;;;;27.10;11.55;;;17.60;99.90;;;;;;4976496;28;20153;-72
2022/08/19 05:22:35;;;;;;;26.17;11.63;;;17.60;99.90;;;;;;4977592;28;20074;-72
2022/08/19 05:25:14;;;;;;;26.05;12.90;;;17.70;99.90;;;;;;4979910;28;20058;-71
2022/08/19 05:27:41;;;;;;;26.63;12.20;;;17.70;99.90;;;;;;4977772;28;20130;-72
2022/08/19 05:30:07;;;;;;;25.45;12.20;;;17.70;99.90;;;;;;4976512;28;20042;-72
2022/08/19 05:32:33;;;;;;;27.35;12.80;;;17.80;99.90;;;;;;4988369;28;20042;-72
2022/08/19 05:34:58;;;;;;;29.02;13.43;;;17.80;99.90;;;;;;4999338;28;20106;-71
2022/08/19 05:37:26;;;;;;;28.25;13.18;;;17.90;99.90;;;;;;4989964;28;20027;-73
2022/08/19 05:39:52;;;;;;;25.17;11.63;;;17.90;99.90;;;;;;4992621;28;20039;-71
2022/08/19 05:42:19;;;;;;;31.70;12.88;;;17.90;99.90;;;;;;4977354;28;20494;-72
2022/08/19 05:44:46;;;;;;;30.77;13.40;;;18.00;99.90;;;;;;4984503;28;20112;-73
2022/08/19 05:47:14;;;;;;;28.90;13.55;;;18.10;99.90;;;;;;4974711;28;20054;-72
2022/08/19 05:49:40;;;;;;;31.75;13.15;;;18.20;99.90;;;;;;4973189;28;20498;-71
2022/08/19 05:52:10;;;;;;;27.33;12.95;;;18.20;99.90;;;;;;4976625;28;20034;-73
2022/08/19 05:54:41;;;;;;;33.72;14.18;;;18.20;99.90;;;;;;4976977;28;20035;-72
2022/08/19 05:57:07;;;;;;;33.97;13.98;;;18.20;99.90;;;;;;4980899;28;20038;-72
2022/08/19 05:59:35;;;;;;;29.85;13.35;;;18.30;99.90;;;;;;4976783;28;20031;-72
2022/08/19 06:02:01;;;;;;;28.63;12.80;;;18.30;99.90;;;;;;4977149;28;20053;-73
2022/08/19 06:04:26;;;;;;;33.42;13.68;;;18.40;99.90;;;;;;4971965;28;20097;-73
2022/08/19 06:06:53;;;;;;;32.90;13.95;;;18.40;99.90;;;;;;4978292;28;20046;-73
2022/08/19 06:09:21;;;;;;;41.78;14.82;;;18.50;99.90;;;;;;4979664;28;20027;-73
2022/08/19 06:11:53;;;;;;;39.40;13.95;;;18.50;99.90;;;;;;4982571;28;20022;-73
2022/08/19 06:14:22;;;;;;;33.33;14.45;;;18.60;99.90;;;;;;4977145;28;20517;-73
2022/08/19 06:16:52;;;;;;;42.90;15.73;;;18.60;99.90;;;;;;4977483;28;20034;-72
2022/08/19 06:19:19;;;;;;;40.47;15.52;;;18.70;99.90;;;;;;4977523;28;22114;-73
2022/08/19 06:21:47;;;;;;;38.92;14.95;;;18.70;99.90;;;;;;4977210;28;20034;-70
2022/08/19 06:24:15;;;;;;;41.70;16.23;;;18.80;99.90;;;;;;4971934;28;20053;-72
2022/08/19 06:26:44;;;;;;;47.40;17.05;;;18.80;99.90;;;;;;4979232;28;20045;-73
2022/08/19 06:29:11;;;;;;;43.22;16.95;;;18.80;99.90;;;;;;4972501;28;20030;-72
2022/08/19 06:31:40;;;;;;;44.83;16.92;;;18.90;99.90;;;;;;4974955;28;20566;-73
2022/08/19 06:34:06;;;;;;;40.95;17.23;;;18.90;99.90;;;;;;4978827;28;20121;-72
2022/08/19 06:36:41;;;;;;;56.90;19.92;;;19.00;99.90;;;;;;4975250;28;20109;-72
2022/08/19 06:39:18;;;;;;;42.40;16.58;;;19.00;99.90;;;;;;4975563;28;20035;-73
2022/08/19 06:41:48;;;;;;;49.58;18.35;;;19.10;99.90;;;;;;4972999;28;20031;-71
2022/08/19 06:44:14;;;;;;;50.33;19.17;;;19.10;99.90;;;;;;4975570;28;20129;-71
2022/08/19 06:46:41;;;;;;;48.35;18.92;;;19.20;99.90;;;;;;4973432;28;20139;-72
2022/08/19 06:49:08;;;;;;;52.45;19.10;;;19.20;99.90;;;;;;4975521;28;20173;-72
2022/08/19 06:51:34;;;;;;;47.53;19.10;;;19.20;99.90;;;;;;4972962;28;20557;-73
2022/08/19 06:54:01;;;;;;;46.90;18.40;;;19.30;99.90;;;;;;4972081;28;20058;-72
2022/08/19 06:56:34;;;;;;;52.38;19.30;;;19.30;99.90;;;;;;4978016;28;20030;-72
2022/08/19 06:59:05;;;;;;;49.08;18.33;;;19.40;99.90;;;;;;4978489;28;20039;-72
2022/08/19 07:01:39;;;;;;;45.28;18.20;;;19.50;99.90;;;;;;4978072;28;20135;-70
2022/08/19 07:04:08;;;;;;;57.55;18.70;;;19.50;99.90;;;;;;4978625;28;20073;-72
2022/08/19 07:06:34;;;;;;;52.58;21.38;;;19.50;99.90;;;;;;4977493;28;20489;-72
2022/08/19 07:09:00;;;;;;;45.97;19.30;;;19.50;99.90;;;;;;4976913;28;20035;-71
2022/08/19 07:11:26;;;;;;;53.83;20.88;;;19.50;99.90;;;;;;4979621;28;20100;-72
2022/08/19 07:13:52;;;;;;;49.25;18.17;;;19.50;99.90;;;;;;4979217;28;20487;-71
2022/08/19 07:16:19;;;;;;;41.40;17.70;;;19.50;99.90;;;;;;4974072;28;20050;-72
2022/08/19 07:18:49;;;;;;;44.47;16.60;;;19.60;99.90;;;;;;4980030;28;20041;-72
2022/08/19 07:21:19;;;;;;;;;;;19.60;99.90;;;;;;4983186;28;20034;-72
2022/08/19 07:23:46;;;;;;;36.85;16.02;;;19.60;99.90;;;;;;4980163;28;19917;-72
2022/08/19 07:26:18;;;;;;;42.00;17.92;;;19.70;99.90;;;;;;4981254;28;20031;-72
2022/08/19 07:28:45;;;;;;;41.15;16.95;;;19.80;99.90;;;;;;4980331;28;20042;-72
2022/08/19 07:31:16;;;;;;;44.88;17.80;;;19.80;99.90;;;;;;4974798;28;20499;-72
2022/08/19 07:33:42;;;;;;;37.28;16.10;;;19.90;99.90;;;;;;4978583;28;20045;-71
2022/08/19 07:36:11;;;;;;;44.65;16.80;;;19.90;99.90;;;;;;4977658;28;20491;-70
2022/08/19 07:38:38;;;;;;;38.47;17.02;;;19.90;99.90;;;;;;4978150;28;20093;-72
2022/08/19 07:41:03;;;;;;;40.53;17.23;;;19.90;99.90;;;;;;4976317;28;20076;-72
2022/08/19 07:43:29;;;;;;;49.42;17.73;;;19.90;99.90;;;;;;4975732;28;20526;-72
2022/08/19 07:45:58;;;;;;;37.80;16.70;;;20.00;99.90;;;;;;4976736;28;20454;-71
2022/08/19 07:48:26;;;;;;;39.50;17.30;;;20.00;99.90;;;;;;4974908;28;20078;-73
2022/08/19 07:50:57;;;;;;;36.00;16.70;;;20.00;99.90;;;;;;4976504;28;20137;-72
2022/08/19 07:53:24;;;;;;;36.95;16.45;;;20.10;99.90;;;;;;4974751;28;20042;-72
2022/08/19 07:55:50;;;;;;;30.50;14.75;;;20.10;99.90;;;;;;5010052;28;20112;-72
2022/08/19 07:58:19;;;;;;;33.88;15.52;;;20.20;99.90;;;;;;4976566;28;20038;-72
2022/08/19 08:00:47;;;;;;;39.28;16.65;;;20.10;99.90;;;;;;4985722;28;20089;-72
2022/08/19 08:03:14;;;;;;;34.70;16.40;;;20.20;99.90;;;;;;4980654;28;20152;-73
2022/08/19 08:10:57;;;;;;;33.33;15.48;;;20.20;99.90;;;;;;4975656;28;20125;-73
2022/08/19 08:13:23;;;;;;;36.28;15.70;;;20.30;99.90;;;;;;4973385;28;20553;-73
2022/08/19 08:15:49;;;;;;;34.50;16.92;;;20.40;99.90;;;;;;4980220;28;20043;-72
2022/08/19 08:18:15;;;;;;;33.47;14.60;;;20.70;99.90;;;;;;4975989;28;20520;-73
2022/08/19 08:20:40;;;;;;;30.85;14.23;;;20.90;99.90;;;;;;4973454;28;20053;-71
2022/08/19 08:25:52;;;;;;;27.48;13.10;;;21.20;99.90;;;;;;4985802;28;20037;-73
2022/08/19 08:28:18;;;;;;;25.05;12.80;;;21.50;99.90;;;;;;4976875;28;20671;-70
2022/08/19 08:30:47;;;;;;;26.88;12.00;;;21.60;99.90;;;;;;4973781;28;20073;-73
2022/08/19 08:33:13;;;;;;;36.45;12.90;;;21.70;99.90;;;;;;4980441;28;20490;-73
2022/08/19 08:35:45;;;;;;;24.55;12.00;;;21.70;99.90;;;;;;4978979;28;20037;-72
2022/08/19 08:38:11;;;;;;;24.20;10.93;;;21.70;99.90;;;;;;4977918;28;20034;-75
2022/08/19 08:40:43;;;;;;;23.23;11.07;;;21.70;99.90;;;;;;4974849;28;20031;-71
2022/08/19 08:43:30;;;;;;;28.30;12.20;;;21.70;99.90;;;;;;4977230;28;20751;-72
2022/08/19 08:46:05;;;;;;;29.63;12.05;;;21.70;99.90;;;;;;4977806;28;20043;-73
2022/08/19 08:48:53;;;;;;;26.75;11.98;;;21.70;99.90;;;;;;4973989;28;20038;-71
2022/08/19 08:51:42;;;;;;;23.65;10.73;;;21.70;99.90;;;;;;4998028;28;20124;-70
2022/08/19 08:54:11;;;;;;;23.90;10.85;;;21.60;99.90;;;;;;4977151;28;20038;-71
2022/08/19 08:56:42;;;;;;;27.98;13.00;;;21.60;99.90;;;;;;4973971;28;20038;-70
2022/08/19 08:59:44;;;;;;;23.67;11.60;;;21.70;99.90;;;;;;4984598;28;20045;-71
2022/08/19 09:02:10;;;;;;;24.45;10.57;;;21.80;99.90;;;;;;4977128;28;20093;-72
2022/08/19 09:04:37;;;;;;;22.42;11.30;;;22.00;99.90;;;;;;4971029;28;20042;-69
2022/08/19 09:07:47;;;;;;;24.67;10.05;;;22.30;99.90;;;;;;4974708;28;20046;-69
2022/08/19 09:10:16;;;;;;;21.75;11.25;;;22.40;99.90;;;;;;4972974;28;20030;-67
2022/08/19 09:13:03;;;;;;;24.75;11.40;;;22.50;99.90;;;;;;4975919;28;20034;-67
2022/08/19 09:15:34;;;;;;;28.60;12.07;;;22.40;99.90;;;;;;4974434;28;20041;-70
2022/08/19 09:18:03;;;;;;;24.05;12.68;;;22.40;99.90;;;;;;4975459;28;20034;-70
2022/08/19 09:20:30;;;;;;;23.15;11.20;;;22.40;99.90;;;;;;4976046;28;20034;-69
2022/08/19 09:22:56;;;;;;;22.33;11.02;;;22.50;99.90;;;;;;4974485;28;20046;-69
2022/08/19 09:25:23;;;;;;;22.23;10.80;;;22.60;99.90;;;;;;4982474;28;20052;-69
2022/08/19 09:27:51;;;;;;;23.30;11.18;;;22.80;99.90;;;;;;4978624;28;20142;-70
2022/08/19 09:30:28;;;;;;;24.50;10.88;;;23.00;99.90;;;;;;4975490;28;20137;-70
2022/08/19 09:32:54;;;;;;;23.63;11.32;;;23.10;99.90;;;;;;4974852;28;20136;-70
2022/08/19 09:35:23;;;;;;;21.38;9.93;;;23.20;99.90;;;;;;4978785;28;20395;-68
2022/08/19 09:37:49;;;;;;;26.10;9.93;;;23.40;99.90;;;;;;4975484;28;20038;-69
2022/08/19 09:40:15;;;;;;;18.73;11.43;;;23.50;99.90;;;;;;4974275;28;20418;-67
2022/08/19 09:42:43;;;;;;;24.15;11.05;;;23.50;99.90;;;;;;4972739;28;20139;-70
2022/08/19 09:45:09;;;;;;;19.48;9.32;;;23.40;99.90;;;;;;4976466;28;20121;-69
2022/08/19 09:47:37;;;;;;;22.52;9.80;;;23.30;99.90;;;;;;4984441;28;20125;-69
2022/08/19 09:50:05;;;;;;;19.60;10.25;;;23.20;99.90;;;;;;4972926;28;20563;-69
2022/08/19 09:52:31;;;;;;;16.92;9.45;;;23.10;99.90;;;;;;4971819;28;20046;-68
2022/08/19 09:54:56;;;;;;;19.48;9.60;;;23.00;99.90;;;;;;4976369;28;20042;-71
2022/08/19 09:57:22;;;;;;;17.75;9.32;;;22.90;99.90;;;;;;4973150;28;20038;-69
2022/08/19 09:59:48;;;;;;;18.92;9.32;;;22.90;99.90;;;;;;4974861;28;20038;-69
2022/08/19 10:02:13;;;;;;;18.13;8.85;;;23.10;99.90;;;;;;4972681;28;20081;-69
2022/08/19 10:07:24;;;;;;;14.45;7.25;;;23.50;99.90;;;;;;4981382;28;20069;-70
2022/08/19 10:09:49;;;;;;;11.40;5.35;;;23.80;99.90;;;;;;4982294;28;20069;-68
2022/08/19 10:12:15;;;;;;;11.23;6.90;;;24.10;99.90;;;;;;4977332;28;20577;-68
2022/08/19 10:14:41;;;;;;;16.15;6.13;;;24.40;99.90;;;;;;4977899;28;20100;-70
2022/08/19 10:17:07;;;;;;;7.63;4.13;;;24.50;99.90;;;;;;4978701;28;20026;-70
2022/08/19 10:19:35;;;;;;;12.50;5.05;;;24.80;99.90;;;;;;4980408;28;20072;-70
2022/08/19 10:22:06;;;;;;;11.77;5.85;;;24.70;99.90;;;;;;4976745;28;20562;-70
2022/08/19 10:24:33;;;;;;;10.35;5.68;;;24.60;99.90;;;;;;4978024;28;20034;-67
2022/08/19 10:27:03;;;;;;;7.82;4.93;;;24.50;99.90;;;;;;4982051;28;20507;-68
2022/08/19 10:29:29;;;;;;;11.15;6.50;;;24.30;99.90;;;;;;4979815;28;20093;-70
2022/08/19 10:31:56;;;;;;;16.20;7.63;;;24.20;99.90;;;;;;4985352;28;20649;-68
2022/08/19 10:34:22;;;;;;;16.77;7.13;;;24.30;99.90;;;;;;4990247;28;20041;-69
2022/08/19 10:36:48;;;;;;;10.45;6.13;;;24.40;99.90;;;;;;4983864;28;20056;-69
2022/08/19 10:39:14;;;;;;;11.43;6.05;;;24.60;99.90;;;;;;4980690;28;20800;-69
2022/08/19 10:41:40;;;;;;;16.33;7.05;;;24.90;99.90;;;;;;4983305;28;20558;-70
2022/08/19 10:44:11;;;;;;;11.02;6.30;;;25.20;99.90;;;;;;4975827;28;20034;-68
2022/08/19 10:46:41;;;;;;;9.88;5.55;;;25.20;99.90;;;;;;4984042;28;20061;-69
2022/08/19 10:49:08;;;;;;;10.02;5.60;;;25.20;99.90;;;;;;4982027;28;20131;-67
2022/08/19 10:54:18;;;;;;;13.27;5.65;;;25.30;99.90;;;;;;4977432;28;20053;-68
2022/08/19 10:56:53;;;;;;;18.00;5.60;;;25.30;99.90;;;;;;4987023;28;20121;-70
2022/08/19 10:59:27;;;;;;;8.07;4.65;;;25.20;99.90;;;;;;4980191;28;20045;-67
2022/08/19 11:01:54;;;;;;;10.35;5.40;;;25.20;99.90;;;;;;4977984;28;20104;-69
2022/08/19 11:04:22;;;;;;;10.93;5.65;;;25.00;99.90;;;;;;4977028;28;20078;-69
2022/08/19 11:06:48;;;;;;;12.52;5.10;;;25.10;99.90;;;;;;4982687;28;20609;-70
2022/08/19 11:09:17;;;;;;;14.18;5.53;;;25.10;99.90;;;;;;4977250;28;20126;-68
2022/08/19 11:11:43;;;;;;;10.55;5.72;;;25.20;99.90;;;;;;4978614;28;20030;-70
2022/08/19 11:14:11;;;;;;;8.70;4.55;;;25.10;99.90;;;;;;4976243;28;20074;-69
2022/08/19 11:16:38;;;;;;;13.40;5.97;;;25.10;99.90;;;;;;4979267;28;20038;-69
2022/08/19 11:19:06;;;;;;;14.73;5.30;;;25.00;99.90;;;;;;4976158;28;20043;-69
2022/08/19 11:21:35;;;;;;;8.55;5.07;;;25.10;99.90;;;;;;4979441;28;20049;-67
2022/08/19 11:24:05;;;;;;;11.23;5.57;;;25.10;99.90;;;;;;4981824;28;20061;-69
2022/08/19 11:26:32;;;;;;;12.43;4.93;;;25.10;99.90;;;;;;4984475;28;20035;-70
2022/08/19 11:28:59;;;;;;;9.68;4.90;;;25.10;99.90;;;;;;4978484;28;20050;-69
2022/08/19 11:31:28;;;;;;;8.95;5.20;;;25.10;99.90;;;;;;4975972;28;20039;-69
2022/08/19 11:33:59;;;;;;;16.80;5.60;;;25.00;99.90;;;;;;4979413;28;20872;-69
2022/08/19 11:36:26;;;;;;;6.45;4.13;;;25.00;99.90;;;;;;4975805;28;20046;-69
2022/08/19 11:38:53;;;;;;;9.02;3.17;;;25.10;99.90;;;;;;4978766;28;20088;-70
2022/08/19 11:41:22;;;;;;;8.02;3.30;;;25.20;99.90;;;;;;4983265;28;20038;-70
2022/08/19 11:43:48;;;;;;;7.82;2.83;;;25.00;99.90;;;;;;4977053;28;20054;-70
2022/08/19 11:46:16;;;;;;;6.10;3.03;;;24.80;99.90;;;;;;4980672;28;20161;-68
2022/08/19 11:48:42;;;;;;;4.22;2.50;;;24.80;99.90;;;;;;4980737;28;20046;-68
2022/08/19 11:51:17;;;;;;;7.10;2.95;;;24.80;99.90;;;;;;4976466;28;20507;-69
2022/08/19 11:53:42;;;;;;;7.13;3.13;;;24.90;99.90;;;;;;4976179;28;20041;-70
2022/08/19 11:56:09;;;;;;;6.60;3.20;;;24.90;99.90;;;;;;4974295;28;20043;-69
2022/08/19 11:58:35;;;;;;;7.43;3.38;;;24.80;99.90;;;;;;4978012;28;20039;-70
2022/08/19 12:01:04;;;;;;;7.68;3.33;;;24.80;99.90;;;;;;4975785;28;20533;-68
2022/08/19 12:03:30;;;;;;;8.48;3.45;;;24.70;99.90;;;;;;4976829;28;20046;-70
2022/08/19 12:05:56;;;;;;;7.88;3.75;;;24.70;99.90;;;;;;4984851;28;20042;-69
2022/08/19 12:08:22;;;;;;;6.78;3.47;;;24.70;99.90;;;;;;4979312;28;20073;-68
2022/08/19 12:10:48;;;;;;;8.70;3.25;;;24.70;99.90;;;;;;4976927;28;20067;-69
2022/08/19 12:13:18;;;;;;;6.18;3.17;;;24.60;99.90;;;;;;4975671;28;20498;-69
2022/08/19 12:15:46;;;;;;;9.25;2.78;;;24.50;99.90;;;;;;4975481;28;20387;-71
2022/08/19 12:18:13;;;;;;;5.72;2.67;;;24.40;99.90;;;;;;4976887;28;20040;-70
2022/08/19 12:20:40;;;;;;;4.15;2.58;;;24.40;99.90;;;;;;4976360;28;20038;-67
2022/08/19 12:23:09;;;;;;;4.30;2.05;;;24.50;99.90;;;;;;4974993;28;20046;-71
2022/08/19 12:25:35;;;;;;;7.40;2.05;;;24.50;99.90;;;;;;4979934;28;20049;-73
2022/08/19 12:28:01;;;;;;;6.57;3.10;;;24.60;99.90;;;;;;4976205;28;20190;-70
2022/08/19 12:30:27;;;;;;;6.28;2.58;;;24.60;99.90;;;;;;4978597;28;20483;-69
2022/08/19 12:32:53;;;;;;;4.85;2.42;;;24.60;99.90;;;;;;4974905;28;20093;-68
2022/08/19 12:35:22;;;;;;;7.15;2.90;;;24.60;99.90;;;;;;4977623;28;20392;-69
2022/08/19 12:37:48;;;;;;;6.25;2.17;;;24.70;99.90;;;;;;4976025;28;20041;-69
2022/08/19 12:40:18;;;;;;;5.90;2.80;;;24.60;99.90;;;;;;4976397;28;20219;-68
2022/08/19 12:42:44;;;;;;;;;;;24.50;99.90;;;;;;4979812;28;20042;-68
2022/08/19 12:45:11;;;;;;;5.93;2.22;;;24.50;99.90;;;;;;4974573;28;19918;-69
2022/08/19 12:47:37;;;;;;;6.90;2.63;;;24.50;99.90;;;;;;4977627;28;20041;-70
2022/08/19 12:50:08;;;;;;;4.63;1.85;;;24.60;99.90;;;;;;4976084;28;20038;-69
2022/08/19 12:52:36;;;;;;;4.32;1.90;;;24.50;99.90;;;;;;4972325;28;20039;-70
2022/08/19 12:55:02;;;;;;;4.93;1.73;;;24.60;99.90;;;;;;4977838;28;20566;-70
2022/08/19 12:57:28;;;;;;;4.15;2.08;;;24.80;99.90;;;;;;4975750;28;20089;-69
2022/08/19 12:59:54;;;;;;;5.95;2.65;;;25.10;99.90;;;;;;4982363;28;20239;-69